Time;durP1;ratioP1;P1;durP2;ratioP2;P2;SDS_P1;SDS_P2;PMS_P1;PMS_P2;Temp;Humidity;BMP_temperature;BMP_pressure;BME280_temperature;BME280_humidity;BME280_pressure;Samples;Min_cycle;Max_cycle;Signal;HPM_P1;HPM_P2
2021/09/29 00:04:29;;;;;;;10.55;5.95;;;;;;;10.13;98.64;101410.16;713868;1178;113975;-76
2021/09/29 00:19:31;;;;;;;13.83;6.80;;;;;;;10.02;100.00;101417.94;714073;1174;114189;-75
2021/09/29 00:34:36;;;;;;;10.18;5.93;;;;;;;9.90;100.00;101419.59;713992;1203;114237;-73
2021/09/29 00:49:38;;;;;;;13.60;6.70;;;;;;;9.79;100.00;101409.84;713865;1200;115162;-75
2021/09/29 01:04:40;;;;;;;9.53;6.10;;;;;;;9.74;100.00;101398.83;714270;1182;115890;-73
2021/09/29 01:20:01;;;;;;;13.65;7.30;;;;;;;9.69;100.00;101387.81;715988;1202;113772;-73
2021/09/29 01:35:04;;;;;;;11.40;6.73;;;;;;;9.62;100.00;101389.14;713870;1200;114359;-74
2021/09/29 01:50:08;;;;;;;12.97;7.60;;;;;;;9.57;100.00;101383.40;713833;1200;114108;-76
2021/09/29 02:05:11;;;;;;;11.10;6.80;;;;;;;9.49;100.00;101395.20;714130;1202;115352;-75
2021/09/29 02:20:14;;;;;;;17.00;9.65;;;;;;;9.34;100.00;101388.34;715661;1180;113842;-73
2021/09/29 02:35:17;;;;;;;14.50;8.00;;;;;;;9.23;100.00;101377.75;713998;1202;114223;-75
2021/09/29 02:50:19;;;;;;;14.80;9.90;;;;;;;9.18;100.00;101367.56;713893;1203;113675;-75
2021/09/29 03:05:21;;;;;;;16.85;9.58;;;;;;;9.07;100.00;101376.11;714101;1200;115058;-74
2021/09/29 03:20:25;;;;;;;16.00;9.33;;;;;;;8.99;100.00;101371.37;714059;1200;114851;-76
2021/09/29 03:35:27;;;;;;;14.50;8.45;;;;;;;8.96;100.00;101360.25;714035;1205;114357;-73
2021/09/29 03:50:30;;;;;;;13.38;7.58;;;;;;;8.82;100.00;101359.36;713973;1203;114598;-74
2021/09/29 04:05:32;;;;;;;11.97;8.13;;;;;;;8.73;100.00;101359.95;714217;1202;114593;-73
2021/09/29 04:20:34;;;;;;;15.03;8.65;;;;;;;8.65;100.00;101359.59;714047;1205;114450;-73
2021/09/29 04:35:38;;;;;;;17.68;9.40;;;;;;;8.63;100.00;101350.98;714079;1201;114247;-73
2021/09/29 04:50:41;;;;;;;15.53;8.33;;;;;;;8.76;100.00;101353.68;714015;1202;115410;-72
2021/09/29 05:05:43;;;;;;;13.80;8.25;;;;;;;8.83;100.00;101353.20;714333;1202;114200;-73
2021/09/29 05:20:46;;;;;;;16.17;9.03;;;;;;;9.09;100.00;101369.02;714090;1200;115936;-73
2021/09/29 05:35:48;;;;;;;14.90;9.90;;;;;;;9.41;100.00;101370.45;714097;1203;114391;-71
2021/09/29 05:50:50;;;;;;;16.33;9.85;;;;;;;9.76;100.00;101370.72;714243;1203;115156;-72
2021/09/29 06:05:52;;;;;;;25.53;12.00;;;;;;;10.19;100.00;101374.83;714300;1200;113692;-74
2021/09/29 06:20:55;;;;;;;21.85;13.18;;;;;;;10.77;100.00;101366.47;714385;1200;114261;-71
2021/09/29 06:35:57;;;;;;;13.00;9.67;;;;;;;11.61;100.00;101366.45;715888;1182;115102;-80
2021/09/29 06:50:59;;;;;;;10.50;8.10;;;;;;;11.98;100.00;101364.53;717267;1206;115803;-78
2021/09/29 07:06:01;;;;;;;12.25;8.50;;;;;;;12.38;100.00;101357.95;715876;1205;115319;-73
2021/09/29 07:21:04;;;;;;;12.33;7.78;;;;;;;12.56;100.00;101367.98;715433;1177;114954;-73
2021/09/29 07:36:06;;;;;;;22.50;9.60;;;;;;;13.39;100.00;101349.91;716084;1202;115812;-78
2021/09/29 07:51:09;;;;;;;14.80;9.03;;;;;;;14.64;99.87;101344.55;714042;1203;114464;-77
2021/09/29 08:06:13;;;;;;;11.90;7.80;;;;;;;15.47;93.05;101334.40;716079;1205;114909;-79
2021/09/29 08:21:18;;;;;;;12.60;6.78;;;;;;;16.05;88.72;101345.02;715687;1201;114012;-74
2021/09/29 09:22:08;;;;;;;13.43;6.05;;;;;;;18.35;74.33;101277.08;714415;1202;114937;-74
2021/09/29 09:37:13;;;;;;;22.17;6.03;;;;;;;18.46;68.38;101250.22;714460;1202;115398;-74
2021/09/29 09:52:31;;;;;;;9.25;5.65;;;;;;;19.02;65.17;101240.80;714860;1193;113966;-77
2021/09/29 10:07:34;;;;;;;19.87;6.63;;;;;;;19.36;62.35;101227.27;714715;1202;115531;-78
2021/09/29 11:02:49;;;;;;;9.03;5.78;;;;;;;19.73;58.52;101183.23;714676;1203;114578;-77
2021/09/29 12:10:16;;;;;;;10.43;5.50;;;;;;;21.05;56.18;101072.94;714294;1202;114039;-77
2021/09/29 12:40:37;;;;;;;59.33;32.63;;;;;;;20.59;54.38;101065.09;714393;1200;114387;-76
2021/09/29 12:55:39;;;;;;;24.13;14.45;;;;;;;20.80;55.29;101052.89;714790;1176;114162;-76
2021/09/29 13:10:43;;;;;;;29.80;16.05;;;;;;;21.12;53.44;101041.02;714632;1200;115012;-78
2021/09/29 13:40:50;;;;;;;51.35;26.58;;;;;;;26.44;47.62;101013.63;714571;1200;114016;-78
2021/09/29 13:55:54;;;;;;;15.87;10.00;;;;;;;26.83;44.51;101018.80;714330;1205;114427;-77
2021/09/29 14:41:39;;;;;;;19.23;11.00;;;;;;;18.18;56.30;100981.47;713981;1200;114040;-72
2021/09/29 14:56:41;;;;;;;42.97;17.20;;;;;;;17.83;58.42;100979.97;714215;1203;115425;-74
2021/09/29 15:11:43;;;;;;;32.00;14.30;;;;;;;17.57;60.31;100970.36;714323;1202;115534;-74
2021/09/29 15:27:08;;;;;;;41.23;26.95;;;;;;;17.30;61.51;100967.83;714264;1201;115524;-74
2021/09/29 16:43:18;;;;;;;45.18;19.33;;;;;;;16.05;66.34;100958.64;714005;1174;114173;-72
2021/09/29 16:58:24;;;;;;;42.05;25.20;;;;;;;15.95;67.71;100948.13;713953;1202;114581;-73
2021/09/29 17:13:36;;;;;;;24.18;10.30;;;;;;;15.92;68.17;100951.09;713885;1203;114242;-74
2021/09/29 17:28:47;;;;;;;34.05;12.83;;;;;;;15.85;68.93;100939.45;714099;1203;115256;-80
2021/09/29 17:59:32;;;;;;;35.88;13.05;;;;;;;15.58;69.78;100920.05;713988;1202;114994;-72
2021/09/29 18:14:34;;;;;;;18.30;6.73;;;;;;;15.31;70.63;100919.98;714045;1205;114478;-72
2021/09/29 18:29:37;;;;;;;15.85;8.25;;;;;;;15.19;71.97;100928.27;714265;1204;115294;-73
2021/09/29 18:44:40;;;;;;;20.57;10.03;;;;;;;15.10;72.25;100928.19;714337;1177;114708;-73
2021/09/29 19:15:05;;;;;;;21.10;7.23;;;;;;;14.73;73.73;100907.16;714539;1203;114432;-73
2021/09/29 19:30:08;;;;;;;19.65;7.05;;;;;;;14.70;75.29;100910.07;714398;1192;114424;-73
2021/09/29 19:45:12;;;;;;;16.57;6.87;;;;;;;14.68;74.84;100901.48;714621;1200;115570;-73
2021/09/29 20:15:35;;;;;;;12.13;7.33;;;;;;;14.57;76.39;100905.09;714498;1203;115501;-72
2021/09/29 20:30:55;;;;;;;19.95;7.03;;;;;;;14.61;77.22;100895.93;714829;1176;113940;-74
2021/09/29 20:46:10;;;;;;;17.73;7.97;;;;;;;14.63;77.13;100878.11;714415;1203;114506;-74
2021/09/29 21:01:12;;;;;;;18.10;7.33;;;;;;;14.55;78.07;100870.92;714600;1202;114863;-72
2021/09/29 21:31:18;;;;;;;19.40;8.00;;;;;;;14.46;78.75;100885.00;714643;1203;114578;-72
2021/09/29 22:17:19;;;;;;;13.55;7.40;;;;;;;14.06;82.24;100873.77;715215;1200;115255;-74
2021/09/29 22:32:50;;;;;;;17.70;8.03;;;;;;;14.00;82.08;100882.25;714635;1202;114100;-75
2021/09/29 23:03:58;;;;;;;23.00;7.90;;;;;;;13.94;83.57;100886.30;715890;1177;115836;-73
2021/09/29 23:34:16;;;;;;;17.30;7.23;;;;;;;13.84;85.68;100887.30;714465;1177;114497;-74
2021/09/29 23:49:18;;;;;;;19.83;7.68;;;;;;;13.78;87.44;100902.70;714182;1200;114028;-73
